Time;durP1;ratioP1;P1;durP2;ratioP2;P2;SDS_P1;SDS_P2;PMS_P1;PMS_P2;Temp;Humidity;BMP_temperature;BMP_pressure;BME280_temperature;BME280_humidity;BME280_pressure;Samples;Min_cycle;Max_cycle;Signal;HPM_P1;HPM_P2
2021/06/11 00:00:41;;;;;;;6.87;3.97;;;14.20;99.90;;;;;;5057325;28;20412;-89
2021/06/11 00:03:06;;;;;;;4.60;3.07;;;14.10;99.90;;;;;;5075508;28;20188;-89
2021/06/11 00:05:32;;;;;;;4.20;3.07;;;14.10;99.90;;;;;;5057462;28;20179;-89
2021/06/11 00:07:57;;;;;;;4.70;3.87;;;14.20;99.90;;;;;;5075187;28;20628;-88
2021/06/11 00:10:23;;;;;;;4.90;3.90;;;14.20;99.90;;;;;;5056231;28;20245;-88
2021/06/11 00:12:49;;;;;;;5.80;4.23;;;14.10;99.90;;;;;;5056691;28;20633;-88
2021/06/11 00:15:14;;;;;;;6.03;3.93;;;14.10;99.90;;;;;;5056504;28;20620;-88
2021/06/11 00:17:40;;;;;;;5.53;4.40;;;14.00;99.90;;;;;;5056818;28;20185;-88
2021/06/11 00:20:08;;;;;;;5.40;4.33;;;13.90;99.90;;;;;;5074611;28;20171;-87
2021/06/11 00:22:34;;;;;;;4.63;4.10;;;13.90;99.90;;;;;;5056817;28;20607;-88
2021/06/11 00:25:00;;;;;;;5.30;3.67;;;13.80;99.90;;;;;;5074754;28;20434;-87
2021/06/11 00:27:26;;;;;;;5.63;4.63;;;13.80;99.90;;;;;;5074193;28;20408;-87
2021/06/11 00:29:51;;;;;;;5.37;4.30;;;13.90;99.90;;;;;;5056193;28;20593;-87
2021/06/11 00:32:17;;;;;;;4.70;3.73;;;13.90;99.90;;;;;;5074428;28;20208;-88
2021/06/11 00:34:43;;;;;;;4.67;3.93;;;13.80;99.90;;;;;;5074734;28;20186;-86
2021/06/11 00:37:08;;;;;;;4.47;3.03;;;13.80;99.90;;;;;;5056614;28;20182;-88
2021/06/11 00:39:34;;;;;;;5.50;3.67;;;13.70;99.90;;;;;;5057820;28;20192;-90
2021/06/11 00:42:01;;;;;;;5.37;4.70;;;13.80;99.90;;;;;;5076111;28;20228;-91
2021/06/11 00:44:27;;;;;;;4.87;4.30;;;13.70;99.90;;;;;;5075622;28;20171;-91
2021/06/11 00:46:53;;;;;;;6.27;4.27;;;13.60;99.90;;;;;;5058325;28;20576;-88
2021/06/11 00:49:19;;;;;;;5.10;3.43;;;13.60;99.90;;;;;;5057942;28;20581;-88
2021/06/11 00:51:45;;;;;;;5.80;3.63;;;13.70;99.90;;;;;;5075788;28;20273;-90
2021/06/11 00:54:12;;;;;;;9.07;4.43;;;13.70;99.90;;;;;;5057578;28;20182;-88
2021/06/11 00:56:37;;;;;;;4.53;4.13;;;13.80;99.90;;;;;;5057814;28;20826;-89
2021/06/11 00:59:03;;;;;;;4.77;3.93;;;13.70;99.90;;;;;;5075404;28;20406;-89
2021/06/11 01:01:29;;;;;;;7.50;4.20;;;13.70;99.90;;;;;;5075830;28;20901;-88
2021/06/11 01:03:54;;;;;;;5.60;4.00;;;13.70;99.90;;;;;;5075454;28;20179;-88
2021/06/11 01:06:21;;;;;;;3.90;3.50;;;13.60;99.90;;;;;;5057525;28;20197;-89
2021/06/11 01:08:47;;;;;;;5.50;4.67;;;13.60;99.90;;;;;;5075585;28;20426;-90
2021/06/11 01:11:13;;;;;;;7.03;6.23;;;13.60;99.90;;;;;;5073849;28;20529;-89
2021/06/11 01:13:40;;;;;;;7.03;5.60;;;13.60;99.90;;;;;;5094336;28;20438;-88
2021/06/11 01:16:06;;;;;;;5.63;4.90;;;13.60;99.90;;;;;;5094844;28;20425;-89
2021/06/11 01:18:32;;;;;;;5.53;4.80;;;13.60;99.90;;;;;;5094899;28;20444;-90
2021/06/11 01:20:57;;;;;;;6.27;5.20;;;13.50;99.90;;;;;;5095017;28;20692;-91
2021/06/11 01:23:52;;;;;;;6.30;4.90;;;13.50;99.90;;;;;;5099188;28;20178;-91
2021/06/11 01:26:23;;;;;;;6.10;5.03;;;13.40;99.90;;;;;;5098512;28;20259;-91
2021/06/11 01:28:52;;;;;;;8.20;5.20;;;13.30;99.90;;;;;;5097877;28;20459;-90
2021/06/11 01:31:19;;;;;;;5.93;5.33;;;13.30;99.90;;;;;;5094808;28;20452;-91
2021/06/11 01:33:50;;;;;;;5.70;4.90;;;13.30;99.90;;;;;;5095963;28;20410;-91
2021/06/11 01:36:18;;;;;;;9.00;5.73;;;13.30;99.90;;;;;;5095125;28;20423;-88
2021/06/11 01:38:47;;;;;;;7.30;5.63;;;13.40;99.90;;;;;;5093824;28;20425;-88
2021/06/11 01:41:15;;;;;;;6.27;5.67;;;13.30;99.90;;;;;;5094181;28;20488;-89
2021/06/11 01:43:42;;;;;;;8.90;5.60;;;13.30;99.90;;;;;;5095164;28;20466;-89
2021/06/11 01:46:13;;;;;;;9.30;6.60;;;13.30;99.90;;;;;;5097922;28;20428;-89
2021/06/11 01:48:41;;;;;;;9.27;5.83;;;13.30;99.90;;;;;;5099205;28;20403;-89
2021/06/11 01:51:09;;;;;;;7.47;5.97;;;13.20;99.90;;;;;;5099089;28;20815;-89
2021/06/11 01:53:38;;;;;;;7.77;6.10;;;13.20;99.90;;;;;;5094859;28;20427;-88
2021/06/11 01:56:04;;;;;;;7.00;6.33;;;13.20;99.90;;;;;;5094262;28;20422;-87
2021/06/11 01:58:31;;;;;;;5.90;5.10;;;13.30;99.90;;;;;;5092486;28;20435;-87
2021/06/11 02:00:57;;;;;;;7.47;6.43;;;13.30;99.90;;;;;;5093987;28;20196;-88
2021/06/11 02:03:24;;;;;;;8.10;6.27;;;13.30;99.90;;;;;;5092804;28;20415;-88
2021/06/11 02:05:52;;;;;;;8.67;7.40;;;13.20;99.90;;;;;;5094022;28;20438;-88
2021/06/11 02:08:19;;;;;;;7.83;6.27;;;13.30;99.90;;;;;;5093892;28;20428;-88
2021/06/11 02:10:45;;;;;;;7.07;6.37;;;13.30;99.90;;;;;;5092332;28;20479;-87
2021/06/11 02:13:11;;;;;;;9.10;8.20;;;13.30;99.90;;;;;;5093827;28;20447;-90
2021/06/11 02:15:37;;;;;;;10.00;7.73;;;13.20;99.90;;;;;;5092409;28;20450;-88
2021/06/11 02:18:04;;;;;;;9.13;8.07;;;13.20;99.90;;;;;;5093060;28;20789;-89
2021/06/11 02:20:30;;;;;;;7.97;6.93;;;13.20;99.90;;;;;;5093064;28;20436;-89
2021/06/11 02:22:56;;;;;;;8.83;7.47;;;13.20;99.90;;;;;;5094161;28;20415;-89
2021/06/11 02:25:25;;;;;;;8.97;6.87;;;13.20;99.90;;;;;;5092879;28;20532;-89
2021/06/11 02:27:53;;;;;;;9.03;7.53;;;13.20;99.90;;;;;;5092981;28;20192;-90
2021/06/11 02:30:19;;;;;;;9.00;7.57;;;13.20;99.90;;;;;;5093417;28;20550;-89
2021/06/11 02:32:46;;;;;;;10.33;8.03;;;13.20;99.90;;;;;;5093680;28;20408;-90
2021/06/11 02:35:24;;;;;;;9.53;7.50;;;13.20;99.90;;;;;;5093780;28;20498;-89
2021/06/11 02:37:52;;;;;;;9.50;7.90;;;13.20;99.90;;;;;;5091009;28;20468;-90
2021/06/11 02:40:18;;;;;;;11.00;9.43;;;13.10;99.90;;;;;;5092137;28;20407;-89
2021/06/11 02:42:56;;;;;;;12.27;9.43;;;13.10;99.90;;;;;;5092085;28;20473;-89
2021/06/11 02:45:29;;;;;;;10.00;8.27;;;13.10;99.90;;;;;;5089231;28;20407;-88
2021/06/11 02:48:09;;;;;;;11.67;9.70;;;13.10;99.90;;;;;;5091708;28;20452;-88
2021/06/11 02:50:49;;;;;;;10.50;9.40;;;13.10;99.90;;;;;;5091919;28;20830;-88
2021/06/11 02:53:25;;;;;;;10.73;8.67;;;13.20;99.90;;;;;;5092865;28;20425;-88
2021/06/11 02:55:55;;;;;;;10.43;8.03;;;13.10;99.90;;;;;;5093043;28;21005;-88
2021/06/11 02:58:21;;;;;;;9.90;7.40;;;13.00;99.90;;;;;;5088432;28;20415;-87
2021/06/11 03:00:48;;;;;;;9.53;7.00;;;13.00;99.90;;;;;;5092383;28;20472;-89
2021/06/11 03:03:20;;;;;;;9.80;7.57;;;12.90;99.90;;;;;;5095664;28;20427;-89
2021/06/11 03:05:46;;;;;;;8.47;7.57;;;13.00;99.90;;;;;;5095655;28;20468;-87
2021/06/11 03:08:18;;;;;;;8.80;7.83;;;12.90;99.90;;;;;;5094645;28;20418;-88
2021/06/11 03:10:49;;;;;;;11.90;9.13;;;12.90;99.90;;;;;;5095044;28;20991;-88
2021/06/11 03:13:17;;;;;;;11.27;9.03;;;13.00;99.90;;;;;;5096950;28;20404;-88
2021/06/11 03:15:44;;;;;;;10.70;8.90;;;13.00;99.90;;;;;;5097487;28;20423;-88
2021/06/11 03:18:22;;;;;;;9.47;8.50;;;13.00;99.90;;;;;;5097197;28;20427;-88
2021/06/11 03:20:51;;;;;;;10.07;9.10;;;13.00;99.90;;;;;;5097398;28;20415;-88
2021/06/11 03:23:22;;;;;;;13.67;9.50;;;13.10;99.90;;;;;;5097402;28;20412;-89
2021/06/11 03:25:51;;;;;;;12.83;9.30;;;13.10;99.90;;;;;;5096031;28;20435;-89
2021/06/11 03:28:41;;;;;;;13.40;10.23;;;13.10;99.90;;;;;;5095594;28;20512;-89
2021/06/11 03:31:11;;;;;;;11.10;9.37;;;13.10;99.90;;;;;;5096004;28;20905;-90
2021/06/11 03:33:39;;;;;;;12.20;9.80;;;13.20;99.90;;;;;;5096349;28;20429;-88
2021/06/11 03:36:22;;;;;;;12.90;10.03;;;13.20;99.90;;;;;;5097222;28;20495;-90
2021/06/11 03:38:55;;;;;;;12.87;11.33;;;13.20;99.90;;;;;;5097141;28;20416;-89
2021/06/11 03:41:21;;;;;;;12.10;10.80;;;13.20;99.90;;;;;;5097277;28;20418;-89
2021/06/11 03:43:52;;;;;;;14.43;9.33;;;13.30;99.90;;;;;;5097011;28;20406;-90
2021/06/11 03:46:18;;;;;;;13.67;10.80;;;13.40;99.90;;;;;;5096403;28;20231;-91
2021/06/11 03:48:47;;;;;;;13.07;10.10;;;13.40;99.90;;;;;;5096435;28;20403;-91
2021/06/11 03:51:13;;;;;;;11.00;9.63;;;13.50;99.90;;;;;;5096453;28;20420;-91
2021/06/11 03:53:41;;;;;;;10.37;8.10;;;13.50;99.90;;;;;;5096430;28;20503;-91
2021/06/11 03:56:09;;;;;;;10.60;9.10;;;13.50;99.90;;;;;;5098228;28;20522;-90
2021/06/11 03:58:47;;;;;;;10.80;9.70;;;13.60;99.90;;;;;;5096913;28;20462;-90
2021/06/11 04:01:24;;;;;;;12.17;9.60;;;13.60;99.90;;;;;;5095790;28;20426;-89
2021/06/11 04:03:51;;;;;;;14.13;11.00;;;13.60;99.90;;;;;;5095464;28;20422;-89
2021/06/11 04:06:30;;;;;;;12.80;11.60;;;13.60;99.90;;;;;;5096781;28;20405;-89
2021/06/11 04:09:11;;;;;;;13.30;9.33;;;13.60;99.90;;;;;;5099784;28;20487;-89
2021/06/11 04:11:42;;;;;;;13.00;10.83;;;13.70;99.90;;;;;;5091937;28;20461;-89
2021/06/11 04:14:12;;;;;;;13.23;11.83;;;13.80;99.90;;;;;;5068819;28;20610;-89
2021/06/11 04:16:42;;;;;;;13.93;11.50;;;14.00;99.90;;;;;;5080992;28;20539;-89
2021/06/11 04:19:19;;;;;;;13.67;11.60;;;14.10;99.90;;;;;;5059266;28;20415;-89
2021/06/11 04:21:47;;;;;;;18.90;14.50;;;14.20;99.90;;;;;;5058730;28;20419;-89
2021/06/11 04:24:14;;;;;;;19.13;16.17;;;14.50;99.90;;;;;;5076715;28;20833;-89
2021/06/11 04:26:41;;;;;;;14.67;12.70;;;14.60;99.90;;;;;;5076020;28;20425;-89
2021/06/11 04:29:12;;;;;;;15.60;13.83;;;14.70;99.90;;;;;;5057830;28;20865;-88
2021/06/11 04:31:38;;;;;;;22.07;19.13;;;14.80;99.90;;;;;;5058339;28;20484;-89
2021/06/11 04:34:04;;;;;;;23.80;17.47;;;15.00;99.90;;;;;;5057835;28;20414;-88
2021/06/11 04:36:30;;;;;;;21.00;17.73;;;15.10;99.90;;;;;;5076081;28;20178;-90
2021/06/11 04:38:59;;;;;;;23.60;19.27;;;15.10;99.90;;;;;;5058416;28;20426;-89
2021/06/11 04:41:27;;;;;;;22.00;17.90;;;15.30;99.90;;;;;;5058873;28;20173;-90
2021/06/11 04:43:55;;;;;;;20.13;17.43;;;15.30;99.90;;;;;;5058156;28;20430;-89
2021/06/11 04:46:20;;;;;;;17.03;14.80;;;15.40;99.90;;;;;;5058097;28;20456;-89
2021/06/11 04:48:46;;;;;;;20.33;16.87;;;15.40;99.90;;;;;;5075906;28;20430;-89
2021/06/11 04:51:12;;;;;;;19.40;16.73;;;15.50;99.90;;;;;;5057728;28;20184;-90
2021/06/11 04:53:37;;;;;;;19.13;17.10;;;15.50;99.90;;;;;;5057601;28;20180;-90
2021/06/11 04:56:07;;;;;;;20.83;18.13;;;15.60;99.90;;;;;;5075338;28;20783;-90
2021/06/11 04:58:34;;;;;;;21.83;18.87;;;15.70;99.90;;;;;;5075094;28;20164;-90
2021/06/11 05:01:00;;;;;;;20.93;18.70;;;15.70;99.90;;;;;;5057569;28;20423;-89
2021/06/11 05:03:25;;;;;;;21.30;19.07;;;15.90;99.90;;;;;;5057516;28;20413;-89
2021/06/11 05:05:51;;;;;;;21.27;18.60;;;15.90;99.90;;;;;;5075454;28;20185;-89
2021/06/11 05:08:16;;;;;;;21.57;19.07;;;16.00;99.90;;;;;;5057714;28;20171;-88
2021/06/11 05:10:42;;;;;;;24.53;19.60;;;;;;;;;;5061411;28;20224;-89
2021/06/11 05:13:08;;;;;;;26.13;19.97;;;16.20;99.90;;;;;;5056955;28;20182;-89
2021/06/11 05:15:33;;;;;;;25.50;21.60;;;16.20;99.90;;;;;;5057408;28;20437;-89
2021/06/11 05:18:06;;;;;;;25.27;20.90;;;16.50;99.90;;;;;;5057141;28;20170;-89
2021/06/11 05:20:33;;;;;;;22.40;19.40;;;16.60;99.90;;;;;;5074947;28;20513;-90
2021/06/11 05:22:59;;;;;;;22.60;20.13;;;16.80;99.90;;;;;;5056706;28;20512;-90
2021/06/11 05:25:25;;;;;;;23.37;20.50;;;;;;;;;;5056520;28;20455;-89
2021/06/11 05:27:52;;;;;;;25.50;20.57;;;17.20;99.90;;;;;;5056802;28;20207;-91
2021/06/11 05:30:18;;;;;;;24.47;21.93;;;17.40;99.90;;;;;;5074803;28;20477;-89
2021/06/11 05:32:45;;;;;;;26.00;20.40;;;17.60;99.90;;;;;;5057011;28;20453;-89
2021/06/11 05:35:11;;;;;;;26.97;23.23;;;17.70;99.90;;;;;;5056964;28;20503;-91
2021/06/11 05:37:36;;;;;;;25.67;20.37;;;17.90;99.90;;;;;;5074695;28;20449;-91
2021/06/11 05:40:03;;;;;;;26.50;21.70;;;18.20;99.90;;;;;;5074917;28;20205;-91
2021/06/11 05:42:29;;;;;;;23.23;19.00;;;;;;;;;;5074305;28;20171;-90
2021/06/11 05:44:54;;;;;;;22.83;19.43;;;18.50;99.90;;;;;;5056457;28;20784;-89
2021/06/11 05:47:20;;;;;;;25.97;21.23;;;18.70;99.90;;;;;;5074417;28;20419;-91
2021/06/11 05:49:46;;;;;;;26.00;22.37;;;18.80;99.90;;;;;;5074383;28;20259;-91
2021/06/11 05:52:11;;;;;;;21.93;19.63;;;19.00;99.90;;;;;;5056729;28;20178;-90
2021/06/11 05:54:37;;;;;;;22.37;20.00;;;19.20;99.90;;;;;;5056860;28;20198;-91
2021/06/11 05:57:03;;;;;;;23.07;20.57;;;19.30;99.90;;;;;;5074189;28;20179;-89
2021/06/11 05:59:28;;;;;;;22.70;18.97;;;19.50;99.90;;;;;;5073898;28;20189;-90
2021/06/11 06:01:54;;;;;;;21.70;19.50;;;19.60;94.20;;;;;;5056481;28;20531;-91
2021/06/11 06:04:19;;;;;;;21.37;18.50;;;19.70;93.80;;;;;;5056406;28;20171;-90
2021/06/11 06:06:45;;;;;;;21.10;18.07;;;20.00;40.70;;;;;;5074188;28;20647;-91
2021/06/11 06:09:11;;;;;;;17.17;15.47;;;20.10;93.80;;;;;;5055932;28;20263;-91
2021/06/11 06:11:36;;;;;;;16.93;14.93;;;20.30;1.00;;;;;;5074188;28;20254;-89
2021/06/11 06:14:02;;;;;;;18.23;14.30;;;20.50;1.00;;;;;;5055657;28;20184;-91
2021/06/11 06:16:28;;;;;;;17.40;15.17;;;20.60;1.00;;;;;;5056380;28;20193;-90
2021/06/11 06:18:54;;;;;;;17.27;15.43;;;20.70;5.80;;;;;;5074051;28;20305;-89
2021/06/11 06:21:19;;;;;;;16.40;13.73;;;21.00;1.00;;;;;;5073761;28;20165;-88
2021/06/11 06:23:45;;;;;;;17.13;13.73;;;21.10;1.00;;;;;;5074126;28;21058;-89
2021/06/11 06:26:10;;;;;;;17.23;15.43;;;21.20;1.00;;;;;;5056274;28;20177;-90
2021/06/11 06:28:36;;;;;;;18.07;15.40;;;21.20;1.00;;;;;;5055943;28;20180;-90
2021/06/11 06:31:03;;;;;;;15.53;13.93;;;21.30;1.00;;;;;;5073517;28;20219;-88
2021/06/11 06:33:28;;;;;;;15.77;14.27;;;21.40;1.00;;;;;;5073529;28;20168;-87
2021/06/11 06:35:54;;;;;;;15.27;12.70;;;21.70;1.00;;;;;;5074733;28;20514;-89
2021/06/11 06:38:19;;;;;;;14.07;12.70;;;21.90;1.00;;;;;;5057240;28;20223;-89
2021/06/11 06:40:48;;;;;;;13.87;12.50;;;22.10;1.00;;;;;;5075636;28;20171;-88
2021/06/11 06:43:14;;;;;;;13.43;12.10;;;22.40;1.00;;;;;;5075479;28;20174;-89
2021/06/11 06:45:40;;;;;;;15.50;13.00;;;22.70;1.00;;;;;;5073462;28;20417;-89
2021/06/11 06:48:06;;;;;;;13.53;12.23;;;22.80;1.00;;;;;;5055316;28;20171;-89
2021/06/11 06:50:32;;;;;;;12.83;11.53;;;23.10;1.00;;;;;;5072970;28;20463;-90
2021/06/11 06:53:03;;;;;;;12.20;10.93;;;23.30;99.90;;;;;;5055155;28;21010;-89
2021/06/11 06:55:29;;;;;;;12.37;11.07;;;23.50;99.90;;;;;;5073261;28;20610;-90
2021/06/11 06:57:54;;;;;;;15.37;11.17;;;23.90;99.90;;;;;;5054721;28;20518;-89
2021/06/11 07:00:20;;;;;;;13.70;12.30;;;25.10;1.00;;;;;;5072997;28;20584;-89
2021/06/11 07:02:45;;;;;;;13.23;11.67;;;25.80;99.90;;;;;;5054629;28;20176;-88
2021/06/11 07:05:14;;;;;;;12.30;10.97;;;26.20;1.00;;;;;;5072934;28;20167;-89
2021/06/11 07:07:40;;;;;;;12.43;11.23;;;26.20;99.90;;;;;;5072932;28;20517;-90
2021/06/11 07:10:06;;;;;;;11.57;10.37;;;26.70;99.90;;;;;;5072742;28;20516;-87
2021/06/11 07:12:32;;;;;;;12.07;10.87;;;27.00;1.00;;;;;;5072239;28;20954;-86
2021/06/11 07:14:58;;;;;;;11.77;10.77;;;27.30;26.30;;;;;;5072809;28;20643;-87
2021/06/11 07:17:24;;;;;;;11.60;9.40;;;27.20;1.00;;;;;;5072604;28;20172;-87
2021/06/11 07:19:50;;;;;;;9.87;8.97;;;27.10;1.00;;;;;;5072503;28;20468;-86
2021/06/11 07:22:15;;;;;;;10.60;9.60;;;27.60;1.00;;;;;;5072644;28;20978;-86
2021/06/11 07:24:41;;;;;;;13.93;12.43;;;27.50;1.00;;;;;;5055086;28;20177;-87
2021/06/11 07:27:07;;;;;;;9.60;8.70;;;27.40;1.00;;;;;;5072608;28;20601;-88
2021/06/11 07:29:33;;;;;;;11.90;10.70;;;27.70;1.00;;;;;;5054176;28;20574;-88
2021/06/11 07:31:58;;;;;;;12.73;11.37;;;28.00;1.00;;;;;;5072674;28;20177;-88
2021/06/11 07:34:24;;;;;;;12.67;11.47;;;28.10;1.00;;;;;;5054707;28;20182;-87
2021/06/11 07:36:49;;;;;;;11.47;10.50;;;28.10;1.00;;;;;;5053835;28;20208;-86
2021/06/11 07:39:17;;;;;;;12.83;11.70;;;28.20;1.00;;;;;;5054317;28;20193;-88
2021/06/11 07:41:44;;;;;;;12.63;11.33;;;28.20;1.00;;;;;;5054935;28;20177;-91
2021/06/11 07:44:09;;;;;;;9.90;8.90;;;28.60;1.00;;;;;;5054350;28;20434;-91
2021/06/11 07:46:37;;;;;;;9.47;8.17;;;28.50;99.90;;;;;;5073273;28;20415;-89
2021/06/11 07:49:04;;;;;;;8.83;8.03;;;28.50;99.90;;;;;;5058473;28;20738;-89
2021/06/11 07:51:30;;;;;;;9.20;7.70;;;28.60;99.90;;;;;;5073882;28;20453;-88
2021/06/11 07:53:55;;;;;;;7.13;6.50;;;28.80;99.90;;;;;;5057963;28;20426;-84
2021/06/11 07:56:21;;;;;;;5.80;5.23;;;28.70;99.90;;;;;;5052718;28;20423;-87
2021/06/11 07:58:46;;;;;;;6.93;5.87;;;28.60;99.90;;;;;;5075088;28;20267;-86
2021/06/11 08:01:12;;;;;;;6.90;5.80;;;28.90;99.90;;;;;;5075298;28;20641;-88
2021/06/11 08:03:38;;;;;;;8.57;5.80;;;29.00;99.90;;;;;;5074611;28;20212;-86
2021/06/11 08:06:03;;;;;;;8.97;5.20;;;29.30;99.90;;;;;;5059738;28;20169;-86
2021/06/11 08:08:29;;;;;;;3.90;3.50;;;29.20;99.90;;;;;;5055636;28;20173;-86
2021/06/11 08:10:55;;;;;;;3.77;3.47;;;29.40;99.90;;;;;;5044095;28;20637;-86
2021/06/11 08:13:21;;;;;;;7.70;3.57;;;29.30;99.90;;;;;;5075886;28;20165;-86
2021/06/11 08:15:47;;;;;;;6.60;4.33;;;29.50;99.90;;;;;;5075724;28;20176;-85
2021/06/11 08:18:12;;;;;;;4.73;3.77;;;29.40;99.90;;;;;;5075592;28;20407;-85
2021/06/11 08:20:39;;;;;;;3.27;3.00;;;29.50;99.90;;;;;;5089807;28;20230;-86
2021/06/11 08:23:06;;;;;;;6.93;4.03;;;29.70;99.90;;;;;;5095818;28;20183;-86
2021/06/11 08:25:32;;;;;;;4.50;4.10;;;29.70;99.90;;;;;;5094516;28;20440;-83
2021/06/11 08:27:58;;;;;;;5.03;3.37;;;29.80;99.90;;;;;;5095409;28;20398;-83
2021/06/11 08:30:24;;;;;;;3.13;2.20;;;30.00;99.90;;;;;;5094243;28;20474;-82
2021/06/11 08:32:51;;;;;;;4.70;2.53;;;29.40;99.90;;;;;;5095717;28;20179;-82
2021/06/11 08:35:18;;;;;;;6.20;2.50;;;29.60;99.90;;;;;;5095891;28;20426;-93
2021/06/11 08:37:45;;;;;;;3.40;2.10;;;29.40;99.90;;;;;;5083892;28;20431;-83
2021/06/11 08:40:12;;;;;;;5.57;2.30;;;29.80;99.90;;;;;;5075636;28;20498;-85
2021/06/11 08:42:38;;;;;;;5.10;2.40;;;30.00;99.90;;;;;;5074868;28;20499;-82
2021/06/11 08:45:07;;;;;;;4.03;2.00;;;30.00;99.90;;;;;;5075239;28;20843;-82
2021/06/11 08:47:34;;;;;;;5.50;1.80;;;29.80;99.90;;;;;;5075332;28;20414;-85
2021/06/11 08:49:59;;;;;;;3.93;2.20;;;29.60;99.90;;;;;;5075180;28;20565;-84
2021/06/11 08:52:28;;;;;;;3.60;2.20;;;29.60;99.90;;;;;;5075874;28;20493;-84
2021/06/11 08:54:54;;;;;;;5.73;2.90;;;29.60;99.90;;;;;;5074980;28;20169;-83
2021/06/11 08:57:21;;;;;;;3.77;2.83;;;29.80;99.90;;;;;;5073425;28;20423;-83
2021/06/11 08:59:48;;;;;;;3.27;2.33;;;30.00;99.90;;;;;;5073922;28;20449;-86
2021/06/11 09:02:14;;;;;;;4.17;1.80;;;30.00;99.90;;;;;;5075044;28;20422;-83
2021/06/11 09:04:51;;;;;;;3.17;2.80;;;30.10;99.90;;;;;;5074791;28;20435;-84
2021/06/11 09:07:22;;;;;;;3.80;2.10;;;30.20;99.90;;;;;;5076684;28;20423;-84
2021/06/11 09:09:54;;;;;;;3.00;2.13;;;30.30;99.90;;;;;;5089644;28;20505;-92
2021/06/11 09:12:46;;;;;;;2.60;1.93;;;30.30;99.90;;;;;;5079533;28;20466;-82
2021/06/11 09:15:15;;;;;;;3.00;2.30;;;30.30;99.90;;;;;;5060658;28;20435;-86
2021/06/11 09:17:41;;;;;;;2.87;2.00;;;30.40;99.90;;;;;;5070450;28;20946;-87
2021/06/11 09:20:14;;;;;;;2.67;2.20;;;30.30;99.90;;;;;;5073397;28;20407;-84
2021/06/11 09:22:53;;;;;;;7.00;2.03;;;30.70;99.90;;;;;;5073188;28;20407;-86
2021/06/11 09:25:43;;;;;;;2.30;1.63;;;30.30;99.90;;;;;;5024347;28;20530;-83
2021/06/11 09:28:11;;;;;;;3.47;2.30;;;30.90;99.90;;;;;;5034751;28;20431;-84
2021/06/11 09:30:37;;;;;;;2.07;1.80;;;30.70;99.90;;;;;;5052788;28;20482;-85
2021/06/11 09:33:05;;;;;;;3.37;2.00;;;30.90;99.90;;;;;;5052783;28;20424;-87
2021/06/11 09:35:35;;;;;;;3.50;3.13;;;31.20;99.90;;;;;;5034930;28;20543;-86
2021/06/11 09:38:17;;;;;;;3.90;3.57;;;31.10;99.90;;;;;;5052628;28;20504;-85
2021/06/11 09:40:46;;;;;;;4.33;3.93;;;30.90;99.90;;;;;;5034947;28;20503;-85
2021/06/11 09:43:12;;;;;;;3.93;2.50;;;30.60;99.90;;;;;;5052382;28;20507;-84
2021/06/11 09:45:38;;;;;;;4.73;4.10;;;30.90;99.90;;;;;;5052678;28;20408;-85
2021/06/11 09:48:24;;;;;;;4.97;3.63;;;30.90;95.20;;;;;;5034725;28;20442;-85
2021/06/11 09:50:52;;;;;;;4.40;4.00;;;30.80;98.70;;;;;;5052439;28;20235;-85
2021/06/11 09:53:23;;;;;;;4.47;3.83;;;30.90;98.80;;;;;;5059877;28;20424;-84
2021/06/11 09:55:51;;;;;;;3.50;3.20;;;30.80;95.50;;;;;;5052583;28;20436;-84
2021/06/11 09:58:24;;;;;;;5.57;3.87;;;30.70;99.90;;;;;;5052374;28;20412;-85
2021/06/11 10:01:25;;;;;;;5.73;3.90;;;31.20;99.90;;;;;;5059676;28;20469;-86
2021/06/11 10:03:53;;;;;;;5.50;2.40;;;31.20;99.90;;;;;;5059378;28;20421;-85
2021/06/11 10:06:22;;;;;;;5.47;4.00;;;31.40;97.00;;;;;;5052423;28;20958;-86
2021/06/11 10:08:50;;;;;;;4.23;3.93;;;31.50;84.60;;;;;;5052135;28;20416;-92
2021/06/11 10:11:17;;;;;;;3.80;3.40;;;32.00;87.60;;;;;;5059812;28;20463;-84
2021/06/11 10:13:44;;;;;;;4.60;3.80;;;32.00;64.20;;;;;;5071938;28;20427;-86
2021/06/11 10:16:12;;;;;;;4.63;3.30;;;31.60;65.00;;;;;;5072411;28;20759;-85
2021/06/11 10:18:39;;;;;;;5.67;3.90;;;31.70;77.30;;;;;;5072381;28;20411;-88
2021/06/11 10:21:06;;;;;;;5.20;3.60;;;31.60;64.30;;;;;;5072415;28;20468;-87
2021/06/11 10:23:33;;;;;;;4.50;4.10;;;31.90;73.70;;;;;;5073004;28;20813;-86
2021/06/11 10:26:02;;;;;;;5.20;3.37;;;31.70;53.20;;;;;;5081301;28;20498;-87
2021/06/11 10:28:41;;;;;;;4.17;3.30;;;31.90;63.30;;;;;;5087257;28;20469;-85
2021/06/11 10:31:19;;;;;;;3.90;3.50;;;32.00;60.50;;;;;;5088236;28;20418;-85
2021/06/11 10:33:44;;;;;;;4.43;4.03;;;31.70;63.70;;;;;;5091111;28;20977;-83
2021/06/11 10:36:36;;;;;;;5.27;3.63;;;31.70;42.60;;;;;;5090220;28;20410;-83
2021/06/11 10:39:15;;;;;;;4.90;4.03;;;32.00;38.90;;;;;;5091178;28;20169;-85
2021/06/11 10:41:52;;;;;;;5.20;4.07;;;32.20;43.40;;;;;;5090376;28;20772;-86
2021/06/11 10:44:40;;;;;;;4.63;3.17;;;31.70;40.70;;;;;;5091653;28;20749;-85
2021/06/11 10:47:15;;;;;;;5.40;4.27;;;31.90;51.80;;;;;;5089261;28;20430;-84
2021/06/11 10:49:56;;;;;;;4.23;3.77;;;31.70;38.60;;;;;;5091248;28;20485;-84
2021/06/11 10:52:54;;;;;;;4.03;3.63;;;32.10;40.20;;;;;;5091704;28;20426;-85
2021/06/11 10:55:19;;;;;;;4.80;3.83;;;32.00;54.70;;;;;;5090810;28;20426;-83
2021/06/11 10:57:58;;;;;;;4.50;3.90;;;32.00;42.70;;;;;;5085040;28;20426;-83
2021/06/11 11:00:27;;;;;;;6.00;3.80;;;32.00;42.20;;;;;;5070889;28;20296;-83
2021/06/11 11:02:58;;;;;;;6.80;4.40;;;32.20;40.80;;;;;;5072637;28;20746;-84
2021/06/11 11:05:42;;;;;;;4.47;4.10;;;32.70;53.90;;;;;;5080074;28;20414;-85
2021/06/11 11:08:09;;;;;;;3.30;3.10;;;31.90;29.70;;;;;;5088547;28;20430;-84
2021/06/11 11:10:51;;;;;;;5.43;3.40;;;32.10;39.10;;;;;;5090166;28;20422;-83
2021/06/11 11:13:26;;;;;;;3.43;2.93;;;32.60;42.90;;;;;;5064409;28;20423;-85
2021/06/11 11:15:57;;;;;;;4.83;4.10;;;32.90;41.60;;;;;;5066710;28;20756;-84
2021/06/11 11:18:31;;;;;;;3.63;3.40;;;32.70;38.20;;;;;;5052616;28;20477;-84
2021/06/11 11:20:59;;;;;;;6.50;4.23;;;31.70;38.70;;;;;;5070374;28;20462;-82
2021/06/11 11:23:27;;;;;;;4.10;3.57;;;31.20;34.50;;;;;;5075993;28;20415;-83
2021/06/11 11:25:54;;;;;;;33.97;5.17;;;32.00;45.60;;;;;;5076372;28;20442;-86
2021/06/11 11:28:20;;;;;;;5.47;3.30;;;32.20;36.20;;;;;;5075937;28;20514;-85
2021/06/11 11:30:49;;;;;;;4.53;3.20;;;32.80;34.70;;;;;;5076616;28;20426;-87
2021/06/11 11:33:16;;;;;;;3.70;3.17;;;32.20;25.50;;;;;;5076353;28;20430;-85
2021/06/11 11:35:46;;;;;;;4.87;3.80;;;30.60;22.10;;;;;;5076478;28;20407;-85
2021/06/11 11:38:12;;;;;;;3.30;2.80;;;29.30;30.00;;;;;;5076249;28;20446;-86
2021/06/11 11:40:41;;;;;;;4.70;3.53;;;30.20;99.90;;;;;;5076203;28;20551;-83
2021/06/11 11:43:07;;;;;;;3.20;2.63;;;31.60;67.10;;;;;;5075659;28;20407;-83
2021/06/11 11:45:33;;;;;;;2.67;2.30;;;32.20;53.60;;;;;;5075992;28;20903;-82
2021/06/11 11:48:02;;;;;;;4.67;3.63;;;32.30;55.00;;;;;;5075553;28;20425;-82
2021/06/11 11:50:32;;;;;;;3.47;2.70;;;32.30;28.10;;;;;;5075467;28;20189;-82
2021/06/11 11:52:57;;;;;;;5.33;3.00;;;32.80;36.70;;;;;;5073097;28;20759;-83
2021/06/11 11:55:23;;;;;;;4.20;3.03;;;32.60;20.90;;;;;;5075368;28;20411;-83
2021/06/11 11:57:49;;;;;;;4.93;3.30;;;32.70;17.90;;;;;;5074717;28;20169;-84
2021/06/11 12:00:16;;;;;;;3.13;2.93;;;32.90;20.50;;;;;;5075141;28;20459;-82
2021/06/11 12:02:43;;;;;;;3.07;2.53;;;33.10;19.10;;;;;;5075216;28;20247;-82
2021/06/11 12:05:10;;;;;;;4.10;3.00;;;31.90;12.10;;;;;;5075412;28;20419;-83
2021/06/11 12:07:36;;;;;;;6.23;3.00;;;31.30;31.60;;;;;;5075425;28;20418;-83
2021/06/11 12:10:02;;;;;;;4.53;3.43;;;31.80;49.00;;;;;;5075445;28;20411;-83
2021/06/11 12:12:28;;;;;;;4.60;3.60;;;31.20;40.90;;;;;;5074814;28;20220;-84
2021/06/11 12:14:54;;;;;;;3.63;3.33;;;30.40;31.50;;;;;;5075476;28;20861;-82
2021/06/11 12:17:20;;;;;;;3.27;1.83;;;30.60;44.30;;;;;;5075512;28;20244;-82
2021/06/11 12:19:46;;;;;;;3.03;2.27;;;31.90;60.90;;;;;;5075427;28;20565;-82
2021/06/11 12:22:13;;;;;;;3.83;3.00;;;32.50;51.40;;;;;;5075351;28;20174;-82
2021/06/11 12:24:39;;;;;;;3.87;2.80;;;33.10;33.70;;;;;;5075332;28;20625;-83
2021/06/11 12:27:05;;;;;;;4.40;2.63;;;33.00;26.20;;;;;;5075046;28;20461;-82
2021/06/11 12:29:31;;;;;;;6.77;3.63;;;32.60;25.80;;;;;;5075322;28;20598;-83
2021/06/11 12:31:56;;;;;;;4.43;3.60;;;30.90;13.00;;;;;;5075319;28;20169;-84
2021/06/11 12:34:22;;;;;;;7.30;3.30;;;31.90;29.30;;;;;;5075109;28;20177;-83
2021/06/11 12:36:48;;;;;;;4.50;2.97;;;32.40;26.00;;;;;;5074968;28;20215;-83
2021/06/11 12:39:14;;;;;;;3.40;2.40;;;32.40;14.00;;;;;;5074278;28;20641;-82
2021/06/11 12:41:39;;;;;;;3.73;3.00;;;32.30;22.60;;;;;;5074356;28;20534;-82
2021/06/11 12:44:15;;;;;;;5.17;3.33;;;31.70;19.90;;;;;;5075142;28;20284;-84
2021/06/11 12:46:41;;;;;;;3.07;2.80;;;30.80;16.40;;;;;;5071821;28;20177;-83
2021/06/11 12:49:07;;;;;;;6.23;2.37;;;30.00;33.40;;;;;;5057019;28;20510;-83